sensor_id;sensor_type;location;lat;lon;timestamp;pressure;altitude;pressure_sealevel;temperature;humidity
66742;BME280;53654;54.152;19.432;2023-09-30T00:00:40;101462.11;;;19.00;79.66
66742;BME280;53654;54.152;19.432;2023-09-30T00:03:28;101462.39;;;19.03;79.61
66742;BME280;53654;54.152;19.432;2023-09-30T00:05:56;101468.10;;;19.07;80.32
66742;BME280;53654;54.152;19.432;2023-09-30T00:08:24;101463.93;;;19.10;81.29
66742;BME280;53654;54.152;19.432;2023-09-30T00:10:52;101457.91;;;19.10;83.06
66742;BME280;53654;54.152;19.432;2023-09-30T00:13:22;101461.82;;;19.09;83.69
66742;BME280;53654;54.152;19.432;2023-09-30T00:15:51;101464.02;;;19.07;85.27
66742;BME280;53654;54.152;19.432;2023-09-30T00:18:19;101458.63;;;19.04;85.08
66742;BME280;53654;54.152;19.432;2023-09-30T00:20:48;101450.21;;;19.02;84.09
66742;BME280;53654;54.152;19.432;2023-09-30T00:23:16;101446.05;;;18.99;85.54
66742;BME280;53654;54.152;19.432;2023-09-30T00:25:44;101446.43;;;18.92;85.72
66742;BME280;53654;54.152;19.432;2023-09-30T00:28:12;101452.42;;;18.88;85.09
66742;BME280;53654;54.152;19.432;2023-09-30T00:30:42;101451.50;;;18.84;84.78
66742;BME280;53654;54.152;19.432;2023-09-30T00:33:14;101450.97;;;18.84;86.33
66742;BME280;53654;54.152;19.432;2023-09-30T00:35:42;101446.84;;;18.80;87.44
66742;BME280;53654;54.152;19.432;2023-09-30T00:38:10;101444.72;;;18.75;87.19
66742;BME280;53654;54.152;19.432;2023-09-30T00:40:38;101440.60;;;18.71;86.68
66742;BME280;53654;54.152;19.432;2023-09-30T00:43:06;101443.34;;;18.68;86.58
66742;BME280;53654;54.152;19.432;2023-09-30T00:45:35;101433.86;;;18.66;86.68
66742;BME280;53654;54.152;19.432;2023-09-30T00:48:07;101429.58;;;18.67;86.88
66742;BME280;53654;54.152;19.432;2023-09-30T00:50:35;101426.77;;;18.66;87.11
66742;BME280;53654;54.152;19.432;2023-09-30T00:53:04;101421.67;;;18.65;87.42
66742;BME280;53654;54.152;19.432;2023-09-30T00:55:33;101421.41;;;18.62;87.54
66742;BME280;53654;54.152;19.432;2023-09-30T00:58:01;101415.62;;;18.61;87.82
66742;BME280;53654;54.152;19.432;2023-09-30T01:00:29;101410.21;;;18.58;87.29
66742;BME280;53654;54.152;19.432;2023-09-30T01:02:58;101407.31;;;18.55;87.46
66742;BME280;53654;54.152;19.432;2023-09-30T01:05:32;101416.61;;;18.51;87.68
66742;BME280;53654;54.152;19.432;2023-09-30T01:08:02;101420.73;;;18.50;88.20
66742;BME280;53654;54.152;19.432;2023-09-30T01:10:30;101420.76;;;18.49;88.48
66742;BME280;53654;54.152;19.432;2023-09-30T01:12:59;101416.80;;;18.51;88.80
66742;BME280;53654;54.152;19.432;2023-09-30T01:15:28;101419.26;;;18.52;88.60
66742;BME280;53654;54.152;19.432;2023-09-30T01:17:58;101413.98;;;18.51;88.42
66742;BME280;53654;54.152;19.432;2023-09-30T01:20:27;101410.16;;;18.49;88.61
66742;BME280;53654;54.152;19.432;2023-09-30T01:22:57;101414.57;;;18.49;88.73
66742;BME280;53654;54.152;19.432;2023-09-30T01:25:25;101417.42;;;18.48;88.65
66742;BME280;53654;54.152;19.432;2023-09-30T01:27:53;101410.38;;;18.47;88.79
66742;BME280;53654;54.152;19.432;2023-09-30T01:30:22;101411.95;;;18.48;88.82
66742;BME280;53654;54.152;19.432;2023-09-30T01:32:51;101412.02;;;18.46;88.94
66742;BME280;53654;54.152;19.432;2023-09-30T01:35:19;101408.77;;;18.48;88.68
66742;BME280;53654;54.152;19.432;2023-09-30T01:37:47;101407.30;;;18.50;88.40
66742;BME280;53654;54.152;19.432;2023-09-30T01:40:15;101404.66;;;18.49;88.49
66742;BME280;53654;54.152;19.432;2023-09-30T01:42:45;101405.11;;;18.52;88.54
66742;BME280;53654;54.152;19.432;2023-09-30T01:45:14;101407.74;;;18.52;88.20
66742;BME280;53654;54.152;19.432;2023-09-30T01:47:42;101406.84;;;18.53;88.18
66742;BME280;53654;54.152;19.432;2023-09-30T01:50:10;101410.88;;;18.54;87.74
66742;BME280;53654;54.152;19.432;2023-09-30T01:52:38;101408.05;;;18.54;87.99
66742;BME280;53654;54.152;19.432;2023-09-30T01:55:07;101417.04;;;18.55;87.97
66742;BME280;53654;54.152;19.432;2023-09-30T01:57:35;101417.41;;;18.54;87.81
66742;BME280;53654;54.152;19.432;2023-09-30T02:00:04;101411.64;;;18.52;87.93
66742;BME280;53654;54.152;19.432;2023-09-30T02:02:39;101412.32;;;18.47;87.70
66742;BME280;53654;54.152;19.432;2023-09-30T02:05:08;101414.44;;;18.42;87.81
66742;BME280;53654;54.152;19.432;2023-09-30T02:07:36;101416.06;;;18.41;88.05
66742;BME280;53654;54.152;19.432;2023-09-30T02:10:05;101416.55;;;18.36;87.97
66742;BME280;53654;54.152;19.432;2023-09-30T02:12:33;101414.83;;;18.34;87.47
66742;BME280;53654;54.152;19.432;2023-09-30T02:15:03;101416.42;;;18.34;87.85
66742;BME280;53654;54.152;19.432;2023-09-30T02:17:31;101415.44;;;18.32;88.76
66742;BME280;53654;54.152;19.432;2023-09-30T02:19:59;101414.14;;;18.28;89.08
66742;BME280;53654;54.152;19.432;2023-09-30T02:22:29;101407.91;;;18.23;88.68
66742;BME280;53654;54.152;19.432;2023-09-30T02:24:57;101406.54;;;18.22;89.23
66742;BME280;53654;54.152;19.432;2023-09-30T02:27:27;101406.98;;;18.19;89.81
66742;BME280;53654;54.152;19.432;2023-09-30T02:29:55;101405.67;;;18.16;89.11
66742;BME280;53654;54.152;19.432;2023-09-30T02:32:24;101409.07;;;18.14;89.34
66742;BME280;53654;54.152;19.432;2023-09-30T02:34:53;101407.82;;;18.15;89.72
66742;BME280;53654;54.152;19.432;2023-09-30T02:37:21;101403.77;;;18.14;89.69
66742;BME280;53654;54.152;19.432;2023-09-30T02:39:49;101403.76;;;18.15;89.14
66742;BME280;53654;54.152;19.432;2023-09-30T02:42:17;101406.59;;;18.15;89.18
66742;BME280;53654;54.152;19.432;2023-09-30T02:44:45;101407.42;;;18.16;88.57
66742;BME280;53654;54.152;19.432;2023-09-30T02:47:15;101407.89;;;18.18;88.90
66742;BME280;53654;54.152;19.432;2023-09-30T02:49:43;101412.40;;;18.21;89.26
66742;BME280;53654;54.152;19.432;2023-09-30T02:52:11;101417.13;;;18.22;90.18
66742;BME280;53654;54.152;19.432;2023-09-30T02:54:40;101420.28;;;18.23;90.69
66742;BME280;53654;54.152;19.432;2023-09-30T02:57:09;101416.59;;;18.22;91.61
66742;BME280;53654;54.152;19.432;2023-09-30T02:59:38;101410.63;;;18.21;92.04
66742;BME280;53654;54.152;19.432;2023-09-30T03:02:06;101400.96;;;18.20;92.60
66742;BME280;53654;54.152;19.432;2023-09-30T03:04:34;101386.73;;;18.17;93.15
66742;BME280;53654;54.152;19.432;2023-09-30T03:07:04;101382.73;;;18.09;93.56
66742;BME280;53654;54.152;19.432;2023-09-30T03:09:32;101392.39;;;18.05;93.64
66742;BME280;53654;54.152;19.432;2023-09-30T03:12:00;101400.77;;;18.02;93.21
66742;BME280;53654;54.152;19.432;2023-09-30T03:14:28;101405.15;;;18.03;94.23
66742;BME280;53654;54.152;19.432;2023-09-30T03:16:58;101408.55;;;18.02;95.24
66742;BME280;53654;54.152;19.432;2023-09-30T03:19:27;101412.27;;;18.01;95.84
66742;BME280;53654;54.152;19.432;2023-09-30T03:21:55;101417.21;;;18.01;96.62
66742;BME280;53654;54.152;19.432;2023-09-30T03:24:24;101423.42;;;18.00;97.30
66742;BME280;53654;54.152;19.432;2023-09-30T03:26:52;101426.30;;;17.99;97.97
66742;BME280;53654;54.152;19.432;2023-09-30T03:29:20;101425.98;;;17.97;98.66
66742;BME280;53654;54.152;19.432;2023-09-30T03:31:48;101423.20;;;17.96;99.13
66742;BME280;53654;54.152;19.432;2023-09-30T03:34:16;101422.91;;;17.94;99.14
66742;BME280;53654;54.152;19.432;2023-09-30T03:36:44;101418.88;;;17.92;98.67
66742;BME280;53654;54.152;19.432;2023-09-30T03:39:13;101423.66;;;17.92;98.73
66742;BME280;53654;54.152;19.432;2023-09-30T03:41:43;101426.34;;;17.91;99.04
66742;BME280;53654;54.152;19.432;2023-09-30T03:44:12;101425.50;;;17.90;99.11
66742;BME280;53654;54.152;19.432;2023-09-30T03:46:40;101425.20;;;17.88;99.14
66742;BME280;53654;54.152;19.432;2023-09-30T03:49:08;101430.84;;;17.88;99.50
66742;BME280;53654;54.152;19.432;2023-09-30T03:51:36;101433.31;;;17.87;99.91
66742;BME280;53654;54.152;19.432;2023-09-30T03:54:05;101433.16;;;17.87;99.90
66742;BME280;53654;54.152;19.432;2023-09-30T03:56:34;101442.35;;;17.86;100.00
66742;BME280;53654;54.152;19.432;2023-09-30T03:59:02;101446.95;;;17.86;100.00
66742;BME280;53654;54.152;19.432;2023-09-30T04:01:30;101452.78;;;17.86;100.00
66742;BME280;53654;54.152;19.432;2023-09-30T04:03:59;101448.91;;;17.85;100.00
66742;BME280;53654;54.152;19.432;2023-09-30T04:06:28;101454.40;;;17.85;100.00
66742;BME280;53654;54.152;19.432;2023-09-30T04:08:57;101459.52;;;17.85;100.00
66742;BME280;53654;54.152;19.432;2023-09-30T04:11:27;101463.76;;;17.85;100.00
66742;BME280;53654;54.152;19.432;2023-09-30T04:13:55;101461.99;;;17.85;100.00
66742;BME280;53654;54.152;19.432;2023-09-30T04:16:23;101463.93;;;17.85;100.00
66742;BME280;53654;54.152;19.432;2023-09-30T04:18:56;101466.61;;;17.84;100.00
66742;BME280;53654;54.152;19.432;2023-09-30T04:21:24;101467.80;;;17.85;100.00
66742;BME280;53654;54.152;19.432;2023-09-30T04:23:54;101474.70;;;17.84;100.00
66742;BME280;53654;54.152;19.432;2023-09-30T04:26:23;101465.66;;;17.86;100.00
66742;BME280;53654;54.152;19.432;2023-09-30T04:28:52;101462.33;;;17.85;100.00
66742;BME280;53654;54.152;19.432;2023-09-30T04:31:21;101464.23;;;17.87;100.00
66742;BME280;53654;54.152;19.432;2023-09-30T04:33:52;101461.58;;;17.87;100.00
66742;BME280;53654;54.152;19.432;2023-09-30T04:36:21;101462.27;;;17.87;100.00
66742;BME280;53654;54.152;19.432;2023-09-30T04:38:51;101468.07;;;17.88;100.00
66742;BME280;53654;54.152;19.432;2023-09-30T04:41:19;101469.27;;;17.89;100.00
66742;BME280;53654;54.152;19.432;2023-09-30T04:43:47;101469.61;;;17.90;100.00
66742;BME280;53654;54.152;19.432;2023-09-30T04:46:15;101469.45;;;17.89;100.00
66742;BME280;53654;54.152;19.432;2023-09-30T04:48:48;101472.80;;;17.89;100.00
66742;BME280;53654;54.152;19.432;2023-09-30T04:51:20;101480.21;;;17.89;100.00
66742;BME280;53654;54.152;19.432;2023-09-30T04:53:48;101490.77;;;17.90;100.00
66742;BME280;53654;54.152;19.432;2023-09-30T04:56:16;101492.17;;;17.91;100.00
66742;BME280;53654;54.152;19.432;2023-09-30T04:58:44;101495.32;;;17.92;100.00
66742;BME280;53654;54.152;19.432;2023-09-30T05:01:14;101496.38;;;17.92;100.00
66742;BME280;53654;54.152;19.432;2023-09-30T05:03:43;101508.02;;;17.92;100.00
66742;BME280;53654;54.152;19.432;2023-09-30T05:06:12;101517.75;;;17.92;100.00
66742;BME280;53654;54.152;19.432;2023-09-30T05:08:40;101536.63;;;17.92;100.00
66742;BME280;53654;54.152;19.432;2023-09-30T05:11:08;101545.89;;;17.89;100.00
66742;BME280;53654;54.152;19.432;2023-09-30T05:13:36;101552.70;;;17.78;100.00
66742;BME280;53654;54.152;19.432;2023-09-30T05:16:04;101551.61;;;17.65;100.00
66742;BME280;53654;54.152;19.432;2023-09-30T05:18:34;101559.79;;;17.54;100.00
66742;BME280;53654;54.152;19.432;2023-09-30T05:21:02;101569.71;;;17.45;100.00
66742;BME280;53654;54.152;19.432;2023-09-30T05:23:30;101575.20;;;17.37;100.00
66742;BME280;53654;54.152;19.432;2023-09-30T05:26:00;101576.11;;;17.28;100.00
66742;BME280;53654;54.152;19.432;2023-09-30T05:28:28;101582.04;;;17.24;100.00
66742;BME280;53654;54.152;19.432;2023-09-30T05:30:56;101587.44;;;17.19;100.00
66742;BME280;53654;54.152;19.432;2023-09-30T05:33:25;101596.85;;;17.16;100.00
66742;BME280;53654;54.152;19.432;2023-09-30T05:35:53;101598.67;;;17.13;100.00
66742;BME280;53654;54.152;19.432;2023-09-30T05:38:22;101602.96;;;17.11;100.00
66742;BME280;53654;54.152;19.432;2023-09-30T05:40:51;101611.81;;;17.09;100.00
66742;BME280;53654;54.152;19.432;2023-09-30T05:43:19;101614.66;;;17.07;100.00
66742;BME280;53654;54.152;19.432;2023-09-30T05:45:47;101619.48;;;17.04;100.00
66742;BME280;53654;54.152;19.432;2023-09-30T05:48:25;101619.53;;;17.02;100.00
66742;BME280;53654;54.152;19.432;2023-09-30T05:50:54;101623.42;;;17.01;100.00
66742;BME280;53654;54.152;19.432;2023-09-30T05:53:22;101630.15;;;17.00;100.00
66742;BME280;53654;54.152;19.432;2023-09-30T05:55:50;101632.37;;;16.95;99.94
66742;BME280;53654;54.152;19.432;2023-09-30T05:58:19;101637.00;;;16.93;98.45
66742;BME280;53654;54.152;19.432;2023-09-30T06:00:47;101638.90;;;16.86;96.81
66742;BME280;53654;54.152;19.432;2023-09-30T06:03:15;101642.86;;;16.82;96.92
66742;BME280;53654;54.152;19.432;2023-09-30T06:05:43;101647.54;;;16.77;96.53
66742;BME280;53654;54.152;19.432;2023-09-30T06:08:12;101652.19;;;16.73;96.00
66742;BME280;53654;54.152;19.432;2023-09-30T06:10:43;101658.79;;;16.70;95.84
66742;BME280;53654;54.152;19.432;2023-09-30T06:13:12;101666.95;;;16.67;96.05
66742;BME280;53654;54.152;19.432;2023-09-30T06:15:41;101667.50;;;16.65;96.30
66742;BME280;53654;54.152;19.432;2023-09-30T06:18:10;101669.11;;;16.63;95.90
66742;BME280;53654;54.152;19.432;2023-09-30T06:20:42;101677.25;;;16.61;94.63
66742;BME280;53654;54.152;19.432;2023-09-30T06:23:10;101681.02;;;16.57;94.17
66742;BME280;53654;54.152;19.432;2023-09-30T06:25:38;101685.23;;;16.58;94.11
66742;BME280;53654;54.152;19.432;2023-09-30T06:28:08;101685.92;;;16.58;94.11
66742;BME280;53654;54.152;19.432;2023-09-30T06:30:36;101687.84;;;16.59;93.87
66742;BME280;53654;54.152;19.432;2023-09-30T06:33:05;101688.54;;;16.60;93.63
66742;BME280;53654;54.152;19.432;2023-09-30T06:35:34;101689.23;;;16.60;92.86
66742;BME280;53654;54.152;19.432;2023-09-30T06:38:06;101687.59;;;16.64;92.20
66742;BME280;53654;54.152;19.432;2023-09-30T06:40:36;101694.27;;;16.66;91.22
66742;BME280;53654;54.152;19.432;2023-09-30T06:43:08;101696.83;;;16.70;90.54
66742;BME280;53654;54.152;19.432;2023-09-30T06:45:36;101699.94;;;16.74;88.61
66742;BME280;53654;54.152;19.432;2023-09-30T06:48:11;101704.65;;;16.76;86.48
66742;BME280;53654;54.152;19.432;2023-09-30T06:50:44;101703.40;;;16.77;84.31
66742;BME280;53654;54.152;19.432;2023-09-30T06:53:17;101710.61;;;16.78;83.82
66742;BME280;53654;54.152;19.432;2023-09-30T06:55:46;101713.23;;;16.78;83.13
66742;BME280;53654;54.152;19.432;2023-09-30T06:58:15;101714.61;;;16.80;82.57
66742;BME280;53654;54.152;19.432;2023-09-30T07:00:49;101717.92;;;16.82;81.21
66742;BME280;53654;54.152;19.432;2023-09-30T07:03:18;101722.63;;;16.85;80.65
66742;BME280;53654;54.152;19.432;2023-09-30T07:05:52;101725.02;;;16.88;81.12
66742;BME280;53654;54.152;19.432;2023-09-30T07:08:22;101723.52;;;16.94;81.31
66742;BME280;53654;54.152;19.432;2023-09-30T07:10:50;101722.22;;;16.97;80.46
66742;BME280;53654;54.152;19.432;2023-09-30T07:13:20;101721.80;;;17.00;79.32
66742;BME280;53654;54.152;19.432;2023-09-30T07:15:49;101728.21;;;17.06;78.77
66742;BME280;53654;54.152;19.432;2023-09-30T07:18:17;101733.60;;;17.10;78.87
66742;BME280;53654;54.152;19.432;2023-09-30T07:20:46;101742.32;;;17.15;78.52
66742;BME280;53654;54.152;19.432;2023-09-30T07:23:14;101744.89;;;17.19;77.87
66742;BME280;53654;54.152;19.432;2023-09-30T07:25:47;101748.70;;;17.21;78.28
66742;BME280;53654;54.152;19.432;2023-09-30T07:28:16;101753.73;;;17.25;78.42
66742;BME280;53654;54.152;19.432;2023-09-30T07:30:44;101751.69;;;17.31;77.89
66742;BME280;53654;54.152;19.432;2023-09-30T07:33:12;101759.52;;;17.36;76.77
66742;BME280;53654;54.152;19.432;2023-09-30T07:35:41;101759.55;;;17.43;75.20
66742;BME280;53654;54.152;19.432;2023-09-30T07:38:09;101755.93;;;17.47;74.00
66742;BME280;53654;54.152;19.432;2023-09-30T07:40:37;101760.46;;;17.50;74.09
66742;BME280;53654;54.152;19.432;2023-09-30T07:43:05;101760.74;;;17.53;74.59
66742;BME280;53654;54.152;19.432;2023-09-30T07:45:33;101767.33;;;17.59;74.02
66742;BME280;53654;54.152;19.432;2023-09-30T07:48:02;101765.48;;;17.62;72.13
66742;BME280;53654;54.152;19.432;2023-09-30T07:50:32;101766.48;;;17.64;70.45
66742;BME280;53654;54.152;19.432;2023-09-30T07:53:02;101772.31;;;17.66;70.28
66742;BME280;53654;54.152;19.432;2023-09-30T07:55:30;101772.29;;;17.67;69.86
66742;BME280;53654;54.152;19.432;2023-09-30T07:57:58;101775.81;;;17.67;69.23
66742;BME280;53654;54.152;19.432;2023-09-30T08:00:28;101780.18;;;17.69;69.68
66742;BME280;53654;54.152;19.432;2023-09-30T08:02:57;101784.45;;;17.68;68.98
66742;BME280;53654;54.152;19.432;2023-09-30T08:05:29;101782.89;;;17.66;68.93
66742;BME280;53654;54.152;19.432;2023-09-30T08:07:57;101789.96;;;17.64;69.48
66742;BME280;53654;54.152;19.432;2023-09-30T08:10:25;101788.67;;;17.69;70.94
66742;BME280;53654;54.152;19.432;2023-09-30T08:12:53;101788.70;;;17.76;71.21
66742;BME280;53654;54.152;19.432;2023-09-30T08:15:25;101789.61;;;17.83;71.84
66742;BME280;53654;54.152;19.432;2023-09-30T08:17:53;101787.77;;;17.86;71.05
66742;BME280;53654;54.152;19.432;2023-09-30T08:20:22;101794.70;;;17.92;70.81
66742;BME280;53654;54.152;19.432;2023-09-30T08:22:50;101794.20;;;17.98;70.60
66742;BME280;53654;54.152;19.432;2023-09-30T08:25:18;101796.00;;;18.04;69.73
66742;BME280;53654;54.152;19.432;2023-09-30T08:27:46;101793.17;;;18.12;69.08
66742;BME280;53654;54.152;19.432;2023-09-30T08:30:17;101796.35;;;18.20;67.90
66742;BME280;53654;54.152;19.432;2023-09-30T08:32:46;101800.53;;;18.29;67.20
66742;BME280;53654;54.152;19.432;2023-09-30T08:35:14;101802.27;;;18.39;66.58
66742;BME280;53654;54.152;19.432;2023-09-30T08:37:43;101810.42;;;18.45;65.88
66742;BME280;53654;54.152;19.432;2023-09-30T08:40:11;101814.05;;;18.48;65.61
66742;BME280;53654;54.152;19.432;2023-09-30T08:42:40;101819.13;;;18.50;65.17
66742;BME280;53654;54.152;19.432;2023-09-30T08:45:10;101819.38;;;18.47;65.09
66742;BME280;53654;54.152;19.432;2023-09-30T08:47:40;101820.73;;;18.49;65.29
66742;BME280;53654;54.152;19.432;2023-09-30T08:50:09;101824.41;;;18.51;66.45
66742;BME280;53654;54.152;19.432;2023-09-30T08:52:40;101825.45;;;18.51;66.52
66742;BME280;53654;54.152;19.432;2023-09-30T08:55:09;101828.10;;;18.51;65.83
66742;BME280;53654;54.152;19.432;2023-09-30T08:57:39;101829.77;;;18.48;64.48
66742;BME280;53654;54.152;19.432;2023-09-30T09:00:11;101826.75;;;18.41;63.94
66742;BME280;53654;54.152;19.432;2023-09-30T09:02:41;101829.48;;;18.38;63.76
66742;BME280;53654;54.152;19.432;2023-09-30T09:05:10;101837.21;;;18.40;63.58
66742;BME280;53654;54.152;19.432;2023-09-30T09:07:39;101839.41;;;18.44;63.59
66742;BME280;53654;54.152;19.432;2023-09-30T09:10:10;101841.99;;;18.54;63.81
66742;BME280;53654;54.152;19.432;2023-09-30T09:12:38;101850.12;;;18.62;63.38
66742;BME280;53654;54.152;19.432;2023-09-30T09:15:11;101854.09;;;18.66;62.83
66742;BME280;53654;54.152;19.432;2023-09-30T09:17:47;101858.33;;;18.67;62.63
66742;BME280;53654;54.152;19.432;2023-09-30T09:20:22;101860.02;;;18.69;63.05
66742;BME280;53654;54.152;19.432;2023-09-30T09:22:52;101860.05;;;18.76;62.87
66742;BME280;53654;54.152;19.432;2023-09-30T09:25:22;101863.52;;;18.79;62.74
66742;BME280;53654;54.152;19.432;2023-09-30T09:27:52;101864.34;;;18.81;62.97
66742;BME280;53654;54.152;19.432;2023-09-30T09:30:24;101865.91;;;18.81;62.44
66742;BME280;53654;54.152;19.432;2023-09-30T09:33:03;101867.47;;;18.76;60.96
66742;BME280;53654;54.152;19.432;2023-09-30T09:35:35;101868.73;;;18.68;61.13
66742;BME280;53654;54.152;19.432;2023-09-30T09:38:07;101868.18;;;18.68;62.19
66742;BME280;53654;54.152;19.432;2023-09-30T09:40:37;101870.29;;;18.76;62.66
66742;BME280;53654;54.152;19.432;2023-09-30T09:43:09;101867.45;;;18.83;62.55
66742;BME280;53654;54.152;19.432;2023-09-30T09:45:37;101869.23;;;18.90;61.92
66742;BME280;53654;54.152;19.432;2023-09-30T09:48:06;101873.31;;;18.96;61.86
66742;BME280;53654;54.152;19.432;2023-09-30T09:50:35;101873.12;;;19.04;61.99
66742;BME280;53654;54.152;19.432;2023-09-30T09:53:04;101870.83;;;19.11;62.00
66742;BME280;53654;54.152;19.432;2023-09-30T09:55:33;101874.69;;;19.19;61.98
66742;BME280;53654;54.152;19.432;2023-09-30T09:58:02;101879.44;;;19.20;61.04
66742;BME280;53654;54.152;19.432;2023-09-30T10:00:30;101880.36;;;19.18;60.63
66742;BME280;53654;54.152;19.432;2023-09-30T10:03:00;101886.04;;;19.17;61.05
66742;BME280;53654;54.152;19.432;2023-09-30T10:05:29;101887.64;;;19.17;61.30
66742;BME280;53654;54.152;19.432;2023-09-30T10:08:04;101889.88;;;19.19;62.08
66742;BME280;53654;54.152;19.432;2023-09-30T10:10:36;101886.72;;;19.25;62.92
66742;BME280;53654;54.152;19.432;2023-09-30T10:13:05;101889.62;;;19.29;62.44
66742;BME280;53654;54.152;19.432;2023-09-30T10:15:35;101887.55;;;19.34;61.65
66742;BME280;53654;54.152;19.432;2023-09-30T10:20:34;101890.98;;;19.50;60.11
66742;BME280;53654;54.152;19.432;2023-09-30T10:25:47;101896.41;;;19.53;57.19
66742;BME280;53654;54.152;19.432;2023-09-30T10:28:38;101899.79;;;19.53;56.92
66742;BME280;53654;54.152;19.432;2023-09-30T10:31:22;101904.16;;;19.47;57.28
66742;BME280;53654;54.152;19.432;2023-09-30T10:36:30;101904.70;;;19.34;57.96
66742;BME280;53654;54.152;19.432;2023-09-30T10:39:01;101905.44;;;19.33;58.75
66742;BME280;53654;54.152;19.432;2023-09-30T10:46:51;101912.45;;;19.22;58.57
66742;BME280;53654;54.152;19.432;2023-09-30T10:51:59;101904.73;;;19.20;59.67
66742;BME280;53654;54.152;19.432;2023-09-30T10:54:31;101908.30;;;19.18;58.92
66742;BME280;53654;54.152;19.432;2023-09-30T10:57:00;101905.34;;;19.17;59.19
66742;BME280;53654;54.152;19.432;2023-09-30T10:59:29;101901.91;;;19.19;58.86
66742;BME280;53654;54.152;19.432;2023-09-30T11:02:03;101906.40;;;19.24;58.94
66742;BME280;53654;54.152;19.432;2023-09-30T11:04:45;101900.13;;;19.33;57.12
66742;BME280;53654;54.152;19.432;2023-09-30T11:07:21;101894.95;;;19.41;56.62
66742;BME280;53654;54.152;19.432;2023-09-30T11:09:50;101902.11;;;19.52;56.47
66742;BME280;53654;54.152;19.432;2023-09-30T11:12:19;101904.16;;;19.61;56.14
66742;BME280;53654;54.152;19.432;2023-09-30T11:14:47;101908.48;;;19.72;56.37
66742;BME280;53654;54.152;19.432;2023-09-30T11:17:21;101910.89;;;19.74;54.46
66742;BME280;53654;54.152;19.432;2023-09-30T11:19:50;101912.77;;;19.70;54.67
66742;BME280;53654;54.152;19.432;2023-09-30T11:22:20;101915.40;;;19.64;54.28
66742;BME280;53654;54.152;19.432;2023-09-30T11:24:49;101915.22;;;19.58;54.24
66742;BME280;53654;54.152;19.432;2023-09-30T11:27:23;101911.91;;;19.56;53.94
66742;BME280;53654;54.152;19.432;2023-09-30T11:29:55;101913.23;;;19.53;54.50
66742;BME280;53654;54.152;19.432;2023-09-30T11:32:24;101907.77;;;19.52;55.00
66742;BME280;53654;54.152;19.432;2023-09-30T11:34:55;101909.71;;;19.51;55.31
66742;BME280;53654;54.152;19.432;2023-09-30T11:37:23;101908.73;;;19.48;55.81
66742;BME280;53654;54.152;19.432;2023-09-30T11:39:51;101909.05;;;19.43;56.34
66742;BME280;53654;54.152;19.432;2023-09-30T11:42:20;101909.66;;;19.40;56.53
66742;BME280;53654;54.152;19.432;2023-09-30T11:44:49;101911.84;;;19.38;56.46
66742;BME280;53654;54.152;19.432;2023-09-30T11:47:28;101914.79;;;19.34;55.00
66742;BME280;53654;54.152;19.432;2023-09-30T11:49:57;101913.11;;;19.30;55.24
66742;BME280;53654;54.152;19.432;2023-09-30T11:52:27;101915.55;;;19.25;55.01
66742;BME280;53654;54.152;19.432;2023-09-30T11:54:58;101907.86;;;19.21;55.73
66742;BME280;53654;54.152;19.432;2023-09-30T11:57:29;101910.91;;;19.20;55.77
66742;BME280;53654;54.152;19.432;2023-09-30T11:59:57;101912.27;;;19.22;55.80
66742;BME280;53654;54.152;19.432;2023-09-30T12:02:25;101911.88;;;19.24;56.32
66742;BME280;53654;54.152;19.432;2023-09-30T12:04:54;101913.72;;;19.27;55.97
66742;BME280;53654;54.152;19.432;2023-09-30T12:07:23;101915.95;;;19.30;55.92
66742;BME280;53654;54.152;19.432;2023-09-30T12:09:51;101916.84;;;19.30;55.95
66742;BME280;53654;54.152;19.432;2023-09-30T12:12:19;101918.92;;;19.32;55.99
66742;BME280;53654;54.152;19.432;2023-09-30T12:14:47;101924.73;;;19.32;55.88
66742;BME280;53654;54.152;19.432;2023-09-30T12:17:18;101926.60;;;19.29;55.75
66742;BME280;53654;54.152;19.432;2023-09-30T12:19:50;101927.74;;;19.25;55.92
66742;BME280;53654;54.152;19.432;2023-09-30T12:22:18;101927.77;;;19.24;56.38
66742;BME280;53654;54.152;19.432;2023-09-30T12:24:46;101930.09;;;19.24;56.57
66742;BME280;53654;54.152;19.432;2023-09-30T12:27:15;101928.86;;;19.23;56.92
66742;BME280;53654;54.152;19.432;2023-09-30T12:29:45;101928.48;;;19.24;57.18
66742;BME280;53654;54.152;19.432;2023-09-30T12:32:16;101929.52;;;19.25;57.46
66742;BME280;53654;54.152;19.432;2023-09-30T12:34:44;101928.77;;;19.26;57.70
66742;BME280;53654;54.152;19.432;2023-09-30T12:37:13;101931.14;;;19.24;57.37
66742;BME280;53654;54.152;19.432;2023-09-30T12:39:41;101932.05;;;19.23;57.86
66742;BME280;53654;54.152;19.432;2023-09-30T12:42:09;101932.47;;;19.21;57.69
66742;BME280;53654;54.152;19.432;2023-09-30T12:44:40;101932.67;;;19.13;57.77
66742;BME280;53654;54.152;19.432;2023-09-30T12:47:08;101931.80;;;19.05;58.33
66742;BME280;53654;54.152;19.432;2023-09-30T12:49:36;101931.71;;;19.02;58.94
66742;BME280;53654;54.152;19.432;2023-09-30T12:52:04;101934.39;;;19.01;59.11
66742;BME280;53654;54.152;19.432;2023-09-30T12:54:32;101930.81;;;19.03;59.36
66742;BME280;53654;54.152;19.432;2023-09-30T12:57:02;101927.92;;;19.05;59.88
66742;BME280;53654;54.152;19.432;2023-09-30T12:59:30;101926.58;;;19.09;59.91
66742;BME280;53654;54.152;19.432;2023-09-30T13:01:59;101922.92;;;19.14;59.86
66742;BME280;53654;54.152;19.432;2023-09-30T13:04:27;101925.39;;;19.21;60.34